sensor_id;sensor_type;location;lat;lon;timestamp;pressure;altitude;pressure_sealevel;temperature;humidity
54248;BME280;40161;39.768;2.722;2023-02-28T00:00:30;100700.16;;;5.98;99.71
54248;BME280;40161;39.768;2.722;2023-02-28T00:02:56;100709.38;;;5.84;100.00
54248;BME280;40161;39.768;2.722;2023-02-28T00:05:23;100658.28;;;5.69;100.00
54248;BME280;40161;39.768;2.722;2023-02-28T00:07:50;100658.53;;;5.76;100.00
54248;BME280;40161;39.768;2.722;2023-02-28T00:10:21;100660.34;;;5.72;99.22
54248;BME280;40161;39.768;2.722;2023-02-28T00:12:51;100679.66;;;5.58;100.00
54248;BME280;40161;39.768;2.722;2023-02-28T00:15:18;100699.56;;;5.71;100.00
54248;BME280;40161;39.768;2.722;2023-02-28T00:17:44;100692.09;;;5.68;100.00
54248;BME280;40161;39.768;2.722;2023-02-28T00:20:11;100708.28;;;5.85;100.00
54248;BME280;40161;39.768;2.722;2023-02-28T00:22:43;100661.31;;;5.67;100.00
54248;BME280;40161;39.768;2.722;2023-02-28T00:25:10;100677.06;;;5.83;100.00
54248;BME280;40161;39.768;2.722;2023-02-28T00:27:37;100681.19;;;5.68;100.00
54248;BME280;40161;39.768;2.722;2023-02-28T00:30:03;100685.13;;;5.58;100.00
54248;BME280;40161;39.768;2.722;2023-02-28T00:32:29;100678.44;;;5.89;100.00
54248;BME280;40161;39.768;2.722;2023-02-28T00:34:55;100669.53;;;5.80;100.00
54248;BME280;40161;39.768;2.722;2023-02-28T00:37:21;100663.19;;;5.76;100.00
54248;BME280;40161;39.768;2.722;2023-02-28T00:39:46;100636.91;;;5.59;98.42
54248;BME280;40161;39.768;2.722;2023-02-28T00:42:12;100657.06;;;5.79;98.68
54248;BME280;40161;39.768;2.722;2023-02-28T00:44:37;100668.75;;;5.79;98.86
54248;BME280;40161;39.768;2.722;2023-02-28T00:47:03;100629.72;;;5.75;98.13
54248;BME280;40161;39.768;2.722;2023-02-28T00:49:29;100604.91;;;5.56;97.39
54248;BME280;40161;39.768;2.722;2023-02-28T00:51:55;100660.25;;;6.14;96.23
54248;BME280;40161;39.768;2.722;2023-02-28T00:54:21;100630.16;;;5.77;95.63
54248;BME280;40161;39.768;2.722;2023-02-28T00:56:47;100643.19;;;5.71;97.47
54248;BME280;40161;39.768;2.722;2023-02-28T00:59:14;100669.13;;;5.90;98.15
54248;BME280;40161;39.768;2.722;2023-02-28T01:01:40;100613.03;;;5.77;99.72
54248;BME280;40161;39.768;2.722;2023-02-28T01:04:06;100673.16;;;5.92;98.22
54248;BME280;40161;39.768;2.722;2023-02-28T01:06:32;100662.78;;;5.86;100.00
54248;BME280;40161;39.768;2.722;2023-02-28T01:08:58;100657.63;;;5.72;100.00
54248;BME280;40161;39.768;2.722;2023-02-28T01:11:24;100628.91;;;5.41;100.00
54248;BME280;40161;39.768;2.722;2023-02-28T01:13:49;100651.81;;;5.74;100.00
54248;BME280;40161;39.768;2.722;2023-02-28T01:16:15;100651.28;;;5.80;100.00
54248;BME280;40161;39.768;2.722;2023-02-28T01:18:41;100667.72;;;6.05;100.00
54248;BME280;40161;39.768;2.722;2023-02-28T01:21:18;100660.88;;;5.99;100.00
54248;BME280;40161;39.768;2.722;2023-02-28T01:23:44;100680.31;;;5.76;100.00
54248;BME280;40161;39.768;2.722;2023-02-28T01:26:13;100642.63;;;5.24;100.00
54248;BME280;40161;39.768;2.722;2023-02-28T01:28:39;100657.31;;;5.32;100.00
54248;BME280;40161;39.768;2.722;2023-02-28T01:31:05;100679.22;;;5.35;100.00
54248;BME280;40161;39.768;2.722;2023-02-28T01:33:32;100682.78;;;5.48;100.00
54248;BME280;40161;39.768;2.722;2023-02-28T01:36:03;100681.50;;;5.66;100.00
54248;BME280;40161;39.768;2.722;2023-02-28T01:38:29;100673.94;;;5.72;100.00
54248;BME280;40161;39.768;2.722;2023-02-28T01:40:54;100659.94;;;5.61;100.00
54248;BME280;40161;39.768;2.722;2023-02-28T01:45:51;100654.63;;;5.65;100.00
54248;BME280;40161;39.768;2.722;2023-02-28T01:48:18;100657.75;;;5.76;100.00
54248;BME280;40161;39.768;2.722;2023-02-28T01:50:45;100647.13;;;5.62;100.00
54248;BME280;40161;39.768;2.722;2023-02-28T01:53:16;100659.53;;;5.71;100.00
54248;BME280;40161;39.768;2.722;2023-02-28T01:55:45;100680.13;;;5.60;100.00
54248;BME280;40161;39.768;2.722;2023-02-28T01:58:12;100675.94;;;5.63;100.00
54248;BME280;40161;39.768;2.722;2023-02-28T02:00:38;100662.63;;;6.03;100.00
54248;BME280;40161;39.768;2.722;2023-02-28T02:03:11;100661.38;;;5.80;100.00
54248;BME280;40161;39.768;2.722;2023-02-28T02:05:39;100668.13;;;5.61;100.00
54248;BME280;40161;39.768;2.722;2023-02-28T02:08:08;100657.91;;;5.37;100.00
54248;BME280;40161;39.768;2.722;2023-02-28T02:10:44;100667.88;;;5.54;100.00
54248;BME280;40161;39.768;2.722;2023-02-28T02:22:07;100653.75;;;5.73;100.00
54248;BME280;40161;39.768;2.722;2023-02-28T02:27:32;100654.91;;;5.84;100.00
54248;BME280;40161;39.768;2.722;2023-02-28T02:33:11;100605.19;;;5.42;100.00
54248;BME280;40161;39.768;2.722;2023-02-28T02:38:32;100628.63;;;5.55;100.00
54248;BME280;40161;39.768;2.722;2023-02-28T02:44:02;100635.72;;;5.47;100.00
54248;BME280;40161;39.768;2.722;2023-02-28T02:46:47;100619.66;;;5.55;100.00
54248;BME280;40161;39.768;2.722;2023-02-28T02:49:22;100648.72;;;5.63;100.00
54248;BME280;40161;39.768;2.722;2023-02-28T02:51:49;100658.03;;;5.62;100.00
54248;BME280;40161;39.768;2.722;2023-02-28T02:54:21;100642.88;;;5.52;100.00
54248;BME280;40161;39.768;2.722;2023-02-28T02:56:49;100605.34;;;5.24;100.00
54248;BME280;40161;39.768;2.722;2023-02-28T02:59:18;100620.66;;;5.29;100.00
54248;BME280;40161;39.768;2.722;2023-02-28T03:01:54;100634.59;;;5.48;100.00
54248;BME280;40161;39.768;2.722;2023-02-28T03:04:23;100639.56;;;5.46;100.00
54248;BME280;40161;39.768;2.722;2023-02-28T03:06:53;100619.13;;;5.19;100.00
54248;BME280;40161;39.768;2.722;2023-02-28T03:09:23;100653.97;;;5.47;100.00
54248;BME280;40161;39.768;2.722;2023-02-28T03:11:50;100631.75;;;5.03;100.00
54248;BME280;40161;39.768;2.722;2023-02-28T03:14:30;100645.81;;;5.05;100.00
54248;BME280;40161;39.768;2.722;2023-02-28T03:25:06;100654.59;;;5.32;100.00
54248;BME280;40161;39.768;2.722;2023-02-28T03:30:27;100649.34;;;5.47;100.00
54248;BME280;40161;39.768;2.722;2023-02-28T03:35:24;100660.91;;;5.44;100.00
54248;BME280;40161;39.768;2.722;2023-02-28T03:37:54;100651.78;;;5.19;100.00
54248;BME280;40161;39.768;2.722;2023-02-28T03:40:25;100638.84;;;5.37;100.00
54248;BME280;40161;39.768;2.722;2023-02-28T03:42:59;100646.94;;;5.46;100.00
54248;BME280;40161;39.768;2.722;2023-02-28T03:45:29;100649.34;;;5.47;100.00
54248;BME280;40161;39.768;2.722;2023-02-28T03:48:00;100623.84;;;5.52;100.00
54248;BME280;40161;39.768;2.722;2023-02-28T03:50:39;100621.88;;;5.40;100.00
54248;BME280;40161;39.768;2.722;2023-02-28T03:55:45;100631.22;;;5.52;100.00
54248;BME280;40161;39.768;2.722;2023-02-28T03:58:21;100582.00;;;5.23;100.00
54248;BME280;40161;39.768;2.722;2023-02-28T04:00:54;100580.84;;;5.24;100.00
54248;BME280;40161;39.768;2.722;2023-02-28T04:03:22;100582.91;;;5.28;100.00
54248;BME280;40161;39.768;2.722;2023-02-28T04:05:55;100596.63;;;5.52;100.00
54248;BME280;40161;39.768;2.722;2023-02-28T04:08:22;100546.63;;;5.23;100.00
54248;BME280;40161;39.768;2.722;2023-02-28T04:10:56;100599.47;;;5.56;100.00
54248;BME280;40161;39.768;2.722;2023-02-28T04:13:25;100573.19;;;5.39;100.00
54248;BME280;40161;39.768;2.722;2023-02-28T04:15:51;100608.09;;;5.58;100.00
54248;BME280;40161;39.768;2.722;2023-02-28T04:18:16;100552.59;;;5.17;100.00
54248;BME280;40161;39.768;2.722;2023-02-28T04:20:42;100584.19;;;5.30;100.00
54248;BME280;40161;39.768;2.722;2023-02-28T04:23:07;100615.41;;;5.45;100.00
54248;BME280;40161;39.768;2.722;2023-02-28T04:25:33;100610.41;;;5.47;100.00
54248;BME280;40161;39.768;2.722;2023-02-28T04:27:58;100524.19;;;5.06;100.00
54248;BME280;40161;39.768;2.722;2023-02-28T04:30:24;100597.75;;;5.51;100.00
54248;BME280;40161;39.768;2.722;2023-02-28T04:32:50;100625.69;;;5.39;100.00
54248;BME280;40161;39.768;2.722;2023-02-28T04:35:15;100618.44;;;5.43;100.00
54248;BME280;40161;39.768;2.722;2023-02-28T04:37:41;100612.63;;;5.33;100.00
54248;BME280;40161;39.768;2.722;2023-02-28T04:40:07;100589.16;;;5.07;100.00
54248;BME280;40161;39.768;2.722;2023-02-28T04:42:32;100575.34;;;4.91;100.00
54248;BME280;40161;39.768;2.722;2023-02-28T04:45:02;100629.97;;;5.07;100.00
54248;BME280;40161;39.768;2.722;2023-02-28T04:47:28;100579.84;;;4.87;100.00
54248;BME280;40161;39.768;2.722;2023-02-28T04:49:53;100638.56;;;5.09;100.00
54248;BME280;40161;39.768;2.722;2023-02-28T04:52:19;100640.69;;;5.04;100.00
54248;BME280;40161;39.768;2.722;2023-02-28T04:54:44;100620.66;;;5.08;100.00
54248;BME280;40161;39.768;2.722;2023-02-28T04:57:10;100645.28;;;5.12;100.00
54248;BME280;40161;39.768;2.722;2023-02-28T04:59:35;100641.44;;;5.13;100.00
54248;BME280;40161;39.768;2.722;2023-02-28T05:02:01;100610.00;;;5.24;100.00
54248;BME280;40161;39.768;2.722;2023-02-28T05:04:35;100619.81;;;5.70;100.00
54248;BME280;40161;39.768;2.722;2023-02-28T05:07:02;100625.75;;;5.52;100.00
54248;BME280;40161;39.768;2.722;2023-02-28T05:09:28;100582.22;;;5.52;100.00
54248;BME280;40161;39.768;2.722;2023-02-28T05:11:54;100622.41;;;5.67;100.00
54248;BME280;40161;39.768;2.722;2023-02-28T05:14:20;100597.25;;;6.03;100.00
54248;BME280;40161;39.768;2.722;2023-02-28T05:16:46;100604.03;;;5.97;100.00
54248;BME280;40161;39.768;2.722;2023-02-28T05:19:11;100612.78;;;6.03;100.00
54248;BME280;40161;39.768;2.722;2023-02-28T05:21:41;100612.81;;;6.27;100.00
54248;BME280;40161;39.768;2.722;2023-02-28T05:24:14;100600.91;;;6.32;100.00
54248;BME280;40161;39.768;2.722;2023-02-28T05:26:41;100607.69;;;6.26;100.00
54248;BME280;40161;39.768;2.722;2023-02-28T05:29:08;100573.19;;;6.17;100.00
54248;BME280;40161;39.768;2.722;2023-02-28T05:31:35;100569.22;;;6.52;100.00
54248;BME280;40161;39.768;2.722;2023-02-28T05:34:00;100614.88;;;6.55;100.00
54248;BME280;40161;39.768;2.722;2023-02-28T05:36:26;100622.50;;;6.61;100.00
54248;BME280;40161;39.768;2.722;2023-02-28T05:38:52;100590.09;;;6.60;100.00
54248;BME280;40161;39.768;2.722;2023-02-28T05:41:19;100590.88;;;6.60;100.00
54248;BME280;40161;39.768;2.722;2023-02-28T05:43:45;100621.78;;;6.77;100.00
54248;BME280;40161;39.768;2.722;2023-02-28T05:46:11;100592.94;;;6.63;100.00
54248;BME280;40161;39.768;2.722;2023-02-28T05:48:39;100572.72;;;6.52;100.00
54248;BME280;40161;39.768;2.722;2023-02-28T05:51:05;100603.16;;;6.66;100.00
54248;BME280;40161;39.768;2.722;2023-02-28T05:53:31;100612.03;;;6.76;100.00
54248;BME280;40161;39.768;2.722;2023-02-28T05:55:57;100571.47;;;6.62;100.00
54248;BME280;40161;39.768;2.722;2023-02-28T05:58:23;100561.78;;;6.77;100.00
54248;BME280;40161;39.768;2.722;2023-02-28T06:00:54;100578.16;;;6.77;100.00
54248;BME280;40161;39.768;2.722;2023-02-28T06:03:19;100668.59;;;6.91;100.00
54248;BME280;40161;39.768;2.722;2023-02-28T06:05:45;100595.56;;;6.48;100.00
54248;BME280;40161;39.768;2.722;2023-02-28T06:08:10;100669.63;;;6.74;100.00
54248;BME280;40161;39.768;2.722;2023-02-28T06:10:36;100660.66;;;6.86;100.00
54248;BME280;40161;39.768;2.722;2023-02-28T06:13:03;100659.41;;;6.71;100.00
54248;BME280;40161;39.768;2.722;2023-02-28T06:15:29;100614.88;;;6.42;100.00
54248;BME280;40161;39.768;2.722;2023-02-28T06:17:55;100572.94;;;6.59;100.00
54248;BME280;40161;39.768;2.722;2023-02-28T06:20:24;100635.22;;;6.82;100.00
54248;BME280;40161;39.768;2.722;2023-02-28T06:22:56;100619.41;;;6.63;100.00
54248;BME280;40161;39.768;2.722;2023-02-28T06:25:24;100633.97;;;6.55;100.00
54248;BME280;40161;39.768;2.722;2023-02-28T06:27:49;100658.97;;;6.81;100.00
54248;BME280;40161;39.768;2.722;2023-02-28T06:30:15;100639.63;;;6.99;100.00
54248;BME280;40161;39.768;2.722;2023-02-28T06:32:41;100645.19;;;6.90;100.00
54248;BME280;40161;39.768;2.722;2023-02-28T06:35:07;100616.13;;;6.70;100.00
54248;BME280;40161;39.768;2.722;2023-02-28T06:37:32;100622.91;;;6.88;100.00
54248;BME280;40161;39.768;2.722;2023-02-28T06:39:58;100648.97;;;6.85;100.00
54248;BME280;40161;39.768;2.722;2023-02-28T06:42:24;100635.66;;;6.59;100.00
54248;BME280;40161;39.768;2.722;2023-02-28T06:44:57;100660.19;;;6.59;100.00
54248;BME280;40161;39.768;2.722;2023-02-28T06:47:23;100636.22;;;6.53;100.00
54248;BME280;40161;39.768;2.722;2023-02-28T06:49:49;100676.69;;;6.63;100.00
54248;BME280;40161;39.768;2.722;2023-02-28T06:52:16;100656.09;;;6.90;100.00
54248;BME280;40161;39.768;2.722;2023-02-28T06:54:41;100675.44;;;6.85;100.00
54248;BME280;40161;39.768;2.722;2023-02-28T06:57:07;100676.34;;;6.89;100.00
54248;BME280;40161;39.768;2.722;2023-02-28T06:59:33;100655.31;;;6.77;100.00
54248;BME280;40161;39.768;2.722;2023-02-28T07:02:00;100686.22;;;6.94;100.00
54248;BME280;40161;39.768;2.722;2023-02-28T07:04:27;100630.31;;;6.63;100.00
54248;BME280;40161;39.768;2.722;2023-02-28T07:06:54;100681.00;;;7.01;100.00
54248;BME280;40161;39.768;2.722;2023-02-28T07:09:22;100673.38;;;7.06;100.00
54248;BME280;40161;39.768;2.722;2023-02-28T07:11:47;100724.97;;;7.11;100.00
54248;BME280;40161;39.768;2.722;2023-02-28T07:14:13;100661.56;;;6.65;100.00
54248;BME280;40161;39.768;2.722;2023-02-28T07:16:38;100725.00;;;6.87;100.00
54248;BME280;40161;39.768;2.722;2023-02-28T07:19:04;100716.56;;;6.80;100.00
54248;BME280;40161;39.768;2.722;2023-02-28T07:21:29;100688.03;;;6.77;100.00
54248;BME280;40161;39.768;2.722;2023-02-28T07:23:55;100663.38;;;6.74;100.00
54248;BME280;40161;39.768;2.722;2023-02-28T07:26:21;100726.81;;;6.95;100.00
54248;BME280;40161;39.768;2.722;2023-02-28T07:28:48;100726.00;;;7.07;100.00
54248;BME280;40161;39.768;2.722;2023-02-28T07:31:14;100645.19;;;6.90;100.00
54248;BME280;40161;39.768;2.722;2023-02-28T07:33:41;100705.00;;;6.95;100.00
54248;BME280;40161;39.768;2.722;2023-02-28T07:36:12;100698.59;;;6.91;100.00
54248;BME280;40161;39.768;2.722;2023-02-28T07:38:41;100712.72;;;6.93;100.00
54248;BME280;40161;39.768;2.722;2023-02-28T07:41:06;100725.88;;;6.91;100.00
54248;BME280;40161;39.768;2.722;2023-02-28T07:43:33;100699.31;;;6.76;100.00
54248;BME280;40161;39.768;2.722;2023-02-28T07:46:08;100717.72;;;6.91;100.00
54248;BME280;40161;39.768;2.722;2023-02-28T07:48:34;100693.38;;;6.98;100.00
54248;BME280;40161;39.768;2.722;2023-02-28T07:51:00;100735.66;;;7.04;100.00
54248;BME280;40161;39.768;2.722;2023-02-28T07:53:27;100758.31;;;6.93;100.00
54248;BME280;40161;39.768;2.722;2023-02-28T07:55:59;100750.31;;;7.12;100.00
54248;BME280;40161;39.768;2.722;2023-02-28T07:58:26;100716.03;;;6.99;100.00
54248;BME280;40161;39.768;2.722;2023-02-28T08:00:53;100722.72;;;6.77;100.00
54248;BME280;40161;39.768;2.722;2023-02-28T08:03:20;100730.78;;;6.98;100.00
54248;BME280;40161;39.768;2.722;2023-02-28T08:05:46;100737.81;;;6.62;100.00
54248;BME280;40161;39.768;2.722;2023-02-28T08:08:13;100748.28;;;6.84;100.00
54248;BME280;40161;39.768;2.722;2023-02-28T08:10:38;100634.97;;;6.50;100.00
54248;BME280;40161;39.768;2.722;2023-02-28T08:13:04;100764.28;;;6.74;100.00
54248;BME280;40161;39.768;2.722;2023-02-28T08:15:30;100756.56;;;6.63;100.00
54248;BME280;40161;39.768;2.722;2023-02-28T08:17:56;100740.22;;;6.88;100.00
54248;BME280;40161;39.768;2.722;2023-02-28T08:20:22;100701.69;;;6.77;100.00
54248;BME280;40161;39.768;2.722;2023-02-28T08:22:48;100722.72;;;6.77;100.00
54248;BME280;40161;39.768;2.722;2023-02-28T08:25:14;100743.63;;;6.97;100.00
54248;BME280;40161;39.768;2.722;2023-02-28T08:27:39;100755.22;;;6.94;100.00
54248;BME280;40161;39.768;2.722;2023-02-28T08:30:06;100787.75;;;6.99;100.00
54248;BME280;40161;39.768;2.722;2023-02-28T08:32:33;100741.81;;;6.89;100.00
54248;BME280;40161;39.768;2.722;2023-02-28T08:34:59;100760.00;;;6.97;100.00
54248;BME280;40161;39.768;2.722;2023-02-28T08:37:25;100768.84;;;6.70;100.00
54248;BME280;40161;39.768;2.722;2023-02-28T08:39:51;100749.78;;;6.94;100.00
54248;BME280;40161;39.768;2.722;2023-02-28T08:42:16;100792.41;;;6.86;100.00
54248;BME280;40161;39.768;2.722;2023-02-28T08:44:42;100795.72;;;6.92;100.00
54248;BME280;40161;39.768;2.722;2023-02-28T08:47:07;100794.38;;;6.53;100.00
54248;BME280;40161;39.768;2.722;2023-02-28T08:49:33;100774.00;;;6.96;100.00
54248;BME280;40161;39.768;2.722;2023-02-28T08:51:58;100755.56;;;6.80;100.00
54248;BME280;40161;39.768;2.722;2023-02-28T08:54:24;100790.72;;;7.06;100.00
54248;BME280;40161;39.768;2.722;2023-02-28T08:56:50;100817.31;;;6.85;100.00
54248;BME280;40161;39.768;2.722;2023-02-28T08:59:15;100773.84;;;6.80;100.00
54248;BME280;40161;39.768;2.722;2023-02-28T09:01:42;100752.91;;;6.59;100.00
54248;BME280;40161;39.768;2.722;2023-02-28T09:04:09;100830.16;;;6.51;100.00
54248;BME280;40161;39.768;2.722;2023-02-28T09:06:36;100807.31;;;6.56;100.00
54248;BME280;40161;39.768;2.722;2023-02-28T09:09:02;100814.25;;;6.53;100.00
54248;BME280;40161;39.768;2.722;2023-02-28T09:11:31;100810.34;;;6.42;100.00
54248;BME280;40161;39.768;2.722;2023-02-28T09:13:57;100816.78;;;6.58;100.00
54248;BME280;40161;39.768;2.722;2023-02-28T09:16:24;100795.53;;;6.64;100.00
54248;BME280;40161;39.768;2.722;2023-02-28T09:18:50;100821.34;;;6.66;100.00
54248;BME280;40161;39.768;2.722;2023-02-28T09:21:17;100848.59;;;6.66;100.00
54248;BME280;40161;39.768;2.722;2023-02-28T09:23:44;100804.59;;;6.56;100.00
54248;BME280;40161;39.768;2.722;2023-02-28T09:26:22;100812.66;;;6.52;100.00
54248;BME280;40161;39.768;2.722;2023-02-28T09:28:48;100867.31;;;6.56;100.00
54248;BME280;40161;39.768;2.722;2023-02-28T09:31:23;100843.41;;;6.74;100.00
54248;BME280;40161;39.768;2.722;2023-02-28T09:33:51;100839.09;;;6.73;100.00
54248;BME280;40161;39.768;2.722;2023-02-28T09:36:18;100852.94;;;6.68;100.00
54248;BME280;40161;39.768;2.722;2023-02-28T09:38:44;100868.53;;;6.79;100.00
54248;BME280;40161;39.768;2.722;2023-02-28T09:41:17;100799.03;;;6.52;100.00
54248;BME280;40161;39.768;2.722;2023-02-28T09:43:45;100888.34;;;6.88;100.00
54248;BME280;40161;39.768;2.722;2023-02-28T09:49:10;100863.41;;;6.78;100.00
54248;BME280;40161;39.768;2.722;2023-02-28T09:51:57;100844.06;;;6.71;100.00
54248;BME280;40161;39.768;2.722;2023-02-28T09:54:26;100897.88;;;6.82;100.00
54248;BME280;40161;39.768;2.722;2023-02-28T09:56:58;100834.28;;;6.70;100.00
54248;BME280;40161;39.768;2.722;2023-02-28T10:08:23;100929.84;;;6.94;100.00
54248;BME280;40161;39.768;2.722;2023-02-28T10:11:01;100870.09;;;6.68;100.00
54248;BME280;40161;39.768;2.722;2023-02-28T10:16:24;100875.25;;;6.82;100.00
54248;BME280;40161;39.768;2.722;2023-02-28T10:21:44;100902.41;;;7.36;100.00
54248;BME280;40161;39.768;2.722;2023-02-28T10:24:28;100844.00;;;6.92;100.00
54248;BME280;40161;39.768;2.722;2023-02-28T10:27:00;100868.41;;;7.09;100.00
54248;BME280;40161;39.768;2.722;2023-02-28T10:29:27;100872.34;;;7.11;100.00
54248;BME280;40161;39.768;2.722;2023-02-28T10:31:56;100872.25;;;7.20;100.00
54248;BME280;40161;39.768;2.722;2023-02-28T10:34:22;100887.19;;;7.23;100.00
54248;BME280;40161;39.768;2.722;2023-02-28T10:36:49;100889.22;;;7.38;100.00
54248;BME280;40161;39.768;2.722;2023-02-28T10:39:42;100922.91;;;7.42;100.00
54248;BME280;40161;39.768;2.722;2023-02-28T10:42:27;100897.19;;;7.43;100.00
54248;BME280;40161;39.768;2.722;2023-02-28T10:45:16;100932.69;;;7.31;100.00
54248;BME280;40161;39.768;2.722;2023-02-28T10:47:59;100912.19;;;7.12;100.00
54248;BME280;40161;39.768;2.722;2023-02-28T10:50:50;100919.66;;;7.16;100.00
54248;BME280;40161;39.768;2.722;2023-02-28T10:58:42;100915.25;;;7.23;100.00
54248;BME280;40161;39.768;2.722;2023-02-28T11:01:21;100935.06;;;7.32;100.00
54248;BME280;40161;39.768;2.722;2023-02-28T11:03:48;100908.69;;;6.91;100.00
54248;BME280;40161;39.768;2.722;2023-02-28T11:09:00;100983.88;;;7.01;100.00
54248;BME280;40161;39.768;2.722;2023-02-28T11:11:29;100986.09;;;6.86;100.00
54248;BME280;40161;39.768;2.722;2023-02-28T11:14:02;101001.69;;;6.65;100.00
54248;BME280;40161;39.768;2.722;2023-02-28T11:16:35;100962.09;;;6.80;100.00
54248;BME280;40161;39.768;2.722;2023-02-28T11:19:04;100969.25;;;6.84;100.00
54248;BME280;40161;39.768;2.722;2023-02-28T11:21:36;100957.28;;;6.77;100.00
54248;BME280;40161;39.768;2.722;2023-02-28T11:26:55;100946.34;;;6.64;100.00
54248;BME280;40161;39.768;2.722;2023-02-28T11:34:34;101035.44;;;7.14;100.00
54248;BME280;40161;39.768;2.722;2023-02-28T11:37:01;101015.28;;;7.07;100.00
54248;BME280;40161;39.768;2.722;2023-02-28T11:39:31;100988.88;;;6.99;100.00
54248;BME280;40161;39.768;2.722;2023-02-28T11:52:56;101000.88;;;7.19;100.00
54248;BME280;40161;39.768;2.722;2023-02-28T11:55:30;100964.22;;;6.95;100.00
54248;BME280;40161;39.768;2.722;2023-02-28T12:04:38;100975.78;;;6.92;100.00
54248;BME280;40161;39.768;2.722;2023-02-28T12:12:05;101028.41;;;6.93;100.00
54248;BME280;40161;39.768;2.722;2023-02-28T12:24:54;100996.41;;;6.81;100.00
54248;BME280;40161;39.768;2.722;2023-02-28T12:27:27;101016.19;;;6.99;100.00
54248;BME280;40161;39.768;2.722;2023-02-28T12:30:04;100995.00;;;6.96;100.00
54248;BME280;40161;39.768;2.722;2023-02-28T12:32:39;100996.50;;;6.72;100.00
54248;BME280;40161;39.768;2.722;2023-02-28T12:37:50;101024.16;;;6.83;100.00
54248;BME280;40161;39.768;2.722;2023-02-28T12:40:23;101014.44;;;6.94;100.00
54248;BME280;40161;39.768;2.722;2023-02-28T12:42:56;101005.13;;;6.95;100.00
54248;BME280;40161;39.768;2.722;2023-02-28T12:45:48;100994.41;;;6.90;100.00
54248;BME280;40161;39.768;2.722;2023-02-28T12:48:21;100964.28;;;6.65;100.00
54248;BME280;40161;39.768;2.722;2023-02-28T12:50:50;100994.53;;;6.94;100.00
54248;BME280;40161;39.768;2.722;2023-02-28T12:53:33;101008.31;;;6.97;100.00
54248;BME280;40161;39.768;2.722;2023-02-28T12:56:13;101014.63;;;7.10;100.00
54248;BME280;40161;39.768;2.722;2023-02-28T12:58:50;101015.47;;;7.02;100.00
54248;BME280;40161;39.768;2.722;2023-02-28T13:09:58;101004.78;;;6.97;100.00
54248;BME280;40161;39.768;2.722;2023-02-28T13:12:25;101010.22;;;7.18;100.00
54248;BME280;40161;39.768;2.722;2023-02-28T13:17:28;100981.28;;;7.04;100.00
54248;BME280;40161;39.768;2.722;2023-02-28T13:24:56;101021.69;;;7.44;100.00
54248;BME280;40161;39.768;2.722;2023-02-28T13:29:50;100992.63;;;7.27;100.00
54248;BME280;40161;39.768;2.722;2023-02-28T13:47:51;101017.94;;;6.95;100.00
54248;BME280;40161;39.768;2.722;2023-02-28T14:06:34;101044.41;;;6.82;100.00
54248;BME280;40161;39.768;2.722;2023-02-28T14:11:45;101035.34;;;6.69;100.00
54248;BME280;40161;39.768;2.722;2023-02-28T14:17:08;101051.78;;;6.81;100.00
54248;BME280;40161;39.768;2.722;2023-02-28T14:19:38;101041.53;;;6.78;100.00
54248;BME280;40161;39.768;2.722;2023-02-28T14:22:18;101046.06;;;6.95;100.00
54248;BME280;40161;39.768;2.722;2023-02-28T14:27:30;101053.56;;;6.77;100.00
54248;BME280;40161;39.768;2.722;2023-02-28T14:33:00;101086.50;;;6.72;100.00
54248;BME280;40161;39.768;2.722;2023-02-28T14:38:17;101051.19;;;6.46;100.00
54248;BME280;40161;39.768;2.722;2023-02-28T14:40:47;101069.53;;;6.66;100.00
54248;BME280;40161;39.768;2.722;2023-02-28T14:43:22;101065.34;;;6.69;100.00
54248;BME280;40161;39.768;2.722;2023-02-28T14:45:58;101103.00;;;6.76;100.00
54248;BME280;40161;39.768;2.722;2023-02-28T14:48:25;101077.13;;;6.82;100.00
54248;BME280;40161;39.768;2.722;2023-02-28T14:50:57;101050.81;;;6.56;100.00
54248;BME280;40161;39.768;2.722;2023-02-28T14:53:26;101060.94;;;6.77;100.00
54248;BME280;40161;39.768;2.722;2023-02-28T14:55:53;101070.13;;;6.72;100.00
54248;BME280;40161;39.768;2.722;2023-02-28T15:00:54;101071.53;;;6.57;100.00
54248;BME280;40161;39.768;2.722;2023-02-28T15:03:27;101098.22;;;6.73;100.00
54248;BME280;40161;39.768;2.722;2023-02-28T15:05:57;101093.41;;;6.70;100.00
54248;BME280;40161;39.768;2.722;2023-02-28T15:08:24;101095.69;;;6.68;100.00
54248;BME280;40161;39.768;2.722;2023-02-28T15:13:20;101097.88;;;6.74;100.00
54248;BME280;40161;39.768;2.722;2023-02-28T15:15:55;101102.78;;;6.81;100.00
54248;BME280;40161;39.768;2.722;2023-02-28T15:18:28;101112.78;;;6.77;100.00
54248;BME280;40161;39.768;2.722;2023-02-28T15:21:01;101103.66;;;6.73;100.00
54248;BME280;40161;39.768;2.722;2023-02-28T15:23:27;101117.81;;;6.96;100.00
54248;BME280;40161;39.768;2.722;2023-02-28T15:25:54;101081.22;;;6.67;100.00
54248;BME280;40161;39.768;2.722;2023-02-28T15:28:22;101069.50;;;6.46;100.00
54248;BME280;40161;39.768;2.722;2023-02-28T15:31:01;101097.69;;;6.79;100.00
54248;BME280;40161;39.768;2.722;2023-02-28T15:33:33;101105.88;;;6.79;100.00
54248;BME280;40161;39.768;2.722;2023-02-28T15:36:12;101086.56;;;6.84;100.00
54248;BME280;40161;39.768;2.722;2023-02-28T15:38:38;101047.50;;;6.51;100.00
54248;BME280;40161;39.768;2.722;2023-02-28T15:41:04;101031.84;;;6.39;100.00
54248;BME280;40161;39.768;2.722;2023-02-28T15:43:36;101099.41;;;7.05;100.00
54248;BME280;40161;39.768;2.722;2023-02-28T15:46:12;100989.25;;;6.26;100.00
54248;BME280;40161;39.768;2.722;2023-02-28T15:51:22;101101.03;;;6.85;100.00
54248;BME280;40161;39.768;2.722;2023-02-28T15:53:56;101070.69;;;6.57;100.00
54248;BME280;40161;39.768;2.722;2023-02-28T15:56:33;101114.66;;;6.85;100.00
54248;BME280;40161;39.768;2.722;2023-02-28T15:59:04;101088.59;;;6.66;100.00